Terminal Aerodrome Forecast
Issued by NWS

Current Version | Previous Version | Text Only | Print | Product List | Glossary On
Versions: 1 2 3 4 5 6 7 8 9 10 11 12 13 14 15 16 17
900
FTAK31 PAJN 260156 AAA
TAFAYA
TAF AMD
PAYA 260156Z 2602/2624 27010KT P6SM SCT150
      TEMPO 2602/2606 27010G20KT
     FM261200 VRB03KT P6SM FEW005 BKN050
      AMD LTD TO CLD VIS AND WIND=

USA.gov is the U.S. government's official web portal to all federal, state and local government web resources and services.